Time;durP1;ratioP1;P1;durP2;ratioP2;P2;SDS_P1;SDS_P2;PMS_P1;PMS_P2;Temp;Humidity;BMP_temperature;BMP_pressure;BME280_temperature;BME280_humidity;BME280_pressure;Samples;Min_cycle;Max_cycle;Signal;HPM_P1;HPM_P2
2021/01/08 00:00:16;;;;;;;60.80;32.98;;;;;;;2.38;60.52;94105.55;1812359;78;21154;-50
2021/01/08 00:02:44;;;;;;;54.15;30.60;;;;;;;2.37;60.83;94107.51;1825351;78;21166;-51
2021/01/08 00:05:13;;;;;;;51.10;28.92;;;;;;;2.35;60.95;94105.02;1812359;79;21360;-52
2021/01/08 00:07:42;;;;;;;43.02;26.55;;;;;;;2.30;61.09;94108.20;1825214;78;21229;-50
2021/01/08 00:10:12;;;;;;;59.20;32.38;;;;;;;2.27;61.32;94103.56;1825414;78;21055;-53
2021/01/08 00:12:40;;;;;;;41.10;25.17;;;;;;;2.27;61.39;94106.28;1812384;79;21523;-51
2021/01/08 00:15:09;;;;;;;33.53;21.33;;;;;;;2.27;61.30;94103.56;1825175;78;21110;-52
2021/01/08 00:17:37;;;;;;;35.33;21.33;;;;;;;2.29;61.20;94106.66;1812356;78;21394;-51
2021/01/08 00:20:07;;;;;;;26.15;17.37;;;;;;;2.28;61.34;94107.81;1825208;78;21130;-50
2021/01/08 00:22:35;;;;;;;63.85;34.23;;;;;;;2.28;61.41;94110.53;1812459;79;21560;-50
2021/01/08 00:25:06;;;;;;;56.13;31.62;;;;;;;2.28;61.29;94111.31;1825270;78;21166;-50
2021/01/08 00:27:34;;;;;;;49.55;28.83;;;;;;;2.26;61.25;94116.95;1812393;79;21174;-51
2021/01/08 00:30:07;;;;;;;43.02;26.57;;;;;;;2.21;60.86;94113.35;1825350;78;21445;-51
2021/01/08 00:32:35;;;;;;;26.45;16.48;;;;;;;2.18;60.67;94114.92;1825274;78;21142;-51
2021/01/08 00:35:05;;;;;;;35.00;22.58;;;;;;;2.14;61.12;94121.60;1825298;78;21571;-50
2021/01/08 00:37:34;;;;;;;26.23;17.80;;;;;;;2.10;61.47;94116.82;1812341;78;21060;-53
2021/01/08 00:40:04;;;;;;;27.00;17.98;;;;;;;2.08;61.72;94113.15;1825455;78;21484;-50
2021/01/08 00:42:34;;;;;;;28.27;20.32;;;;;;;2.07;61.89;94106.77;1812365;79;21389;-51
2021/01/08 00:45:05;;;;;;;39.35;22.62;;;;;;;2.03;61.88;94104.12;1825274;78;21489;-50
2021/01/08 00:47:33;;;;;;;31.40;19.57;;;;;;;1.98;61.84;94106.52;1825313;78;21060;-50
2021/01/08 00:50:03;;;;;;;21.30;15.15;;;;;;;1.87;62.03;94114.00;1812344;79;21487;-50
2021/01/08 00:52:31;;;;;;;20.85;15.28;;;;;;;1.79;62.35;94106.55;1797451;78;21076;-51
2021/01/08 00:55:00;;;;;;;18.98;13.40;;;;;;;1.73;62.61;94115.53;1812345;79;21425;-51
2021/01/08 00:57:30;;;;;;;22.70;15.55;;;;;;;1.71;62.53;94117.88;1824290;78;21015;-52
2021/01/08 00:59:59;;;;;;;16.75;13.98;;;;;;;1.64;62.75;94130.17;1812501;79;21497;-50
2021/01/08 01:02:27;;;;;;;21.40;15.25;;;;;;;1.60;62.68;94119.97;1825420;78;21584;-49
2021/01/08 01:04:56;;;;;;;20.20;14.63;;;;;;;1.58;62.68;94118.25;1825316;78;21142;-50
2021/01/08 01:07:24;;;;;;;20.43;14.78;;;;;;;1.59;62.89;94122.50;1812383;79;21438;-50
2021/01/08 01:09:53;;;;;;;42.62;29.12;;;;;;;1.60;63.07;94121.33;1825270;78;21044;-51
2021/01/08 01:12:21;;;;;;;29.82;22.58;;;;;;;1.64;63.12;94119.91;1825292;78;21088;-50
2021/01/08 01:14:50;;;;;;;27.30;20.80;;;;;;;1.61;63.31;94123.44;1824883;78;21067;-51
2021/01/08 01:17:18;;;;;;;25.12;17.85;;;;;;;1.57;63.25;94120.78;1822109;78;21087;-50
2021/01/08 01:19:47;;;;;;;22.17;16.17;;;;;;;1.58;63.40;94118.25;1806470;79;22274;-51
2021/01/08 01:22:15;;;;;;;27.02;18.60;;;;;;;1.55;63.43;94117.72;1822002;78;21120;-50
2021/01/08 01:24:43;;;;;;;20.30;15.48;;;;;;;1.50;63.51;94119.49;1822061;78;21039;-50
2021/01/08 01:27:12;;;;;;;22.70;15.53;;;;;;;1.42;63.52;94119.41;1822053;78;21907;-51
2021/01/08 01:29:40;;;;;;;24.32;15.95;;;;;;;1.34;63.42;94131.48;1822117;78;21062;-51
2021/01/08 01:32:09;;;;;;;18.27;12.88;;;;;;;1.28;63.26;94131.74;1806316;79;22357;-50
2021/01/08 01:34:37;;;;;;;12.47;10.28;;;;;;;1.26;62.58;94134.09;1822028;78;21155;-50
2021/01/08 01:37:06;;;;;;;11.05;9.45;;;;;;;1.29;63.12;94129.81;1822043;78;21091;-51
2021/01/08 01:39:34;;;;;;;11.00;9.78;;;;;;;1.26;63.30;94116.48;1822075;78;21142;-52
2021/01/08 01:42:02;;;;;;;10.23;9.20;;;;;;;1.25;63.47;94117.66;1822104;78;21063;-52
2021/01/08 01:44:31;;;;;;;35.23;22.10;;;;;;;1.28;63.49;94114.13;1822161;78;22186;-52
2021/01/08 01:46:59;;;;;;;17.55;13.65;;;;;;;1.34;63.44;94121.99;1822172;78;21079;-50
2021/01/08 01:49:27;;;;;;;24.98;15.75;;;;;;;1.39;63.33;94120.22;1822026;78;21119;-51
2021/01/08 01:51:56;;;;;;;22.75;16.35;;;;;;;1.46;63.25;94114.70;1777717;78;21144;-50
2021/01/08 01:54:24;;;;;;;19.02;13.35;;;;;;;1.48;63.15;94114.31;1822082;78;21179;-51
2021/01/08 01:56:53;;;;;;;26.00;18.00;;;;;;;1.49;62.88;94109.83;1822062;78;21134;-50
2021/01/08 01:59:21;;;;;;;48.50;28.40;;;;;;;1.51;63.26;94108.83;1822010;78;21069;-50
2021/01/08 02:01:50;;;;;;;45.12;27.15;;;;;;;1.46;63.73;94101.73;1822055;78;21055;-53
2021/01/08 02:04:19;;;;;;;32.40;20.55;;;;;;;1.42;64.04;94096.38;1822009;78;21112;-50
2021/01/08 02:06:48;;;;;;;23.27;16.07;;;;;;;1.39;63.91;94097.76;1822079;78;21116;-50
2021/01/08 02:09:16;;;;;;;28.25;17.77;;;;;;;1.33;64.05;94095.33;1822027;78;21274;-50
2021/01/08 02:11:49;;;;;;;22.80;15.90;;;;;;;1.32;64.20;94090.48;1821996;78;21139;-52
2021/01/08 02:14:20;;;;;;;44.93;24.72;;;;;;;1.31;64.35;94088.94;1806453;79;21123;-50
2021/01/08 02:16:49;;;;;;;62.20;33.90;;;;;;;1.32;64.31;94095.89;1821945;78;21107;-49
2021/01/08 02:19:32;;;;;;;67.70;35.52;;;;;;;1.26;64.62;94093.45;1806332;79;21067;-51
2021/01/08 02:22:07;;;;;;;44.83;24.18;;;;;;;1.20;64.83;94096.44;1822241;78;21380;-51
2021/01/08 02:24:45;;;;;;;35.20;18.98;;;;;;;1.10;64.76;94089.17;1806301;79;21128;-52
2021/01/08 02:27:14;;;;;;;35.20;20.97;;;;;;;0.97;64.79;94085.44;1792670;78;21091;-51
2021/01/08 02:29:42;;;;;;;42.13;21.23;;;;;;;0.90;64.85;94080.09;1822117;78;21215;-50
2021/01/08 02:32:10;;;;;;;44.65;25.00;;;;;;;0.86;64.90;94080.72;1792620;78;21059;-49
2021/01/08 02:34:39;;;;;;;53.83;27.50;;;;;;;0.87;65.01;94086.32;1822307;78;22390;-51
2021/01/08 02:37:07;;;;;;;45.90;26.33;;;;;;;0.88;65.02;94087.86;1822159;78;21114;-50
2021/01/08 02:39:35;;;;;;;55.85;30.70;;;;;;;0.87;64.88;94080.91;1822160;78;21115;-51
2021/01/08 02:42:04;;;;;;;45.67;27.10;;;;;;;0.87;64.81;94077.42;1822210;78;21059;-49
2021/01/08 02:44:32;;;;;;;38.30;22.90;;;;;;;0.86;64.88;94082.65;1792742;78;21426;-50
2021/01/08 02:47:01;;;;;;;44.70;23.18;;;;;;;0.83;64.82;94068.57;1806452;79;21383;-50
2021/01/08 02:49:29;;;;;;;55.60;30.40;;;;;;;0.78;64.95;94072.47;1822117;78;21067;-50
2021/01/08 02:51:58;;;;;;;57.88;29.27;;;;;;;0.74;65.19;94087.23;1822215;78;21519;-49
2021/01/08 02:54:26;;;;;;;52.48;26.60;;;;;;;0.67;65.77;94089.41;1822188;78;21052;-51
2021/01/08 02:56:55;;;;;;;56.53;28.52;;;;;;;0.63;66.09;94087.30;1822208;78;21150;-50
2021/01/08 02:59:23;;;;;;;51.15;27.93;;;;;;;0.58;66.40;94087.73;1822286;78;22275;-51
2021/01/08 03:01:52;;;;;;;54.53;28.42;;;;;;;0.59;66.49;94092.58;1822102;78;21079;-49
2021/01/08 03:04:20;;;;;;;47.20;26.05;;;;;;;0.57;66.56;94091.61;1822189;78;21457;-50
2021/01/08 03:06:51;;;;;;;46.20;24.12;;;;;;;0.51;66.57;94090.52;1822141;78;21177;-50
2021/01/08 03:09:19;;;;;;;44.23;25.35;;;;;;;0.46;66.87;94088.24;1778358;79;21048;-51
2021/01/08 03:11:53;;;;;;;39.30;21.70;;;;;;;0.48;66.93;94087.83;1822135;78;22028;-50
2021/01/08 03:14:22;;;;;;;29.02;17.02;;;;;;;0.48;66.73;94094.02;1822101;78;21083;-54
2021/01/08 03:16:50;;;;;;;26.05;16.45;;;;;;;0.45;66.83;94094.79;1821717;78;21075;-50
2021/01/08 03:19:22;;;;;;;41.35;23.27;;;;;;;0.47;66.73;94099.25;1822119;78;21064;-50
2021/01/08 03:21:49;;;;;;;41.63;24.35;;;;;;;0.47;66.66;94092.48;1822164;78;21075;-50
2021/01/08 03:24:17;;;;;;;37.17;20.77;;;;;;;0.43;66.64;94106.59;1822265;78;21578;-49
2021/01/08 03:26:46;;;;;;;35.70;20.70;;;;;;;0.40;66.83;94103.34;1822113;78;21119;-50
2021/01/08 03:29:15;;;;;;;27.00;17.85;;;;;;;0.37;66.92;94096.03;1822122;78;21139;-50
2021/01/08 03:31:44;;;;;;;31.62;19.70;;;;;;;0.29;67.15;94101.89;1806323;79;21055;-48
2021/01/08 03:34:12;;;;;;;36.45;19.87;;;;;;;0.22;67.42;94097.89;1822229;78;21067;-49
2021/01/08 03:36:41;;;;;;;36.45;20.37;;;;;;;0.17;67.60;94085.55;1822131;78;22354;-50
2021/01/08 03:39:10;;;;;;;38.65;22.77;;;;;;;0.12;67.83;94085.98;1822085;78;21076;-50
2021/01/08 03:41:38;;;;;;;34.43;21.07;;;;;;;0.12;67.92;94095.45;1822141;78;21120;-50
2021/01/08 03:44:06;;;;;;;31.12;18.82;;;;;;;0.11;67.87;94087.72;1822081;78;21103;-51
2021/01/08 03:46:37;;;;;;;29.05;16.97;;;;;;;0.11;67.86;94083.09;1822143;78;21064;-50
2021/01/08 03:49:06;;;;;;;26.77;16.77;;;;;;;0.16;67.76;94098.11;1806402;79;21138;-50
2021/01/08 03:51:34;;;;;;;46.90;27.93;;;;;;;0.21;67.70;94106.57;1822027;78;21622;-50
2021/01/08 03:54:03;;;;;;;47.53;26.75;;;;;;;0.22;67.67;94108.11;1806396;79;21036;-49
2021/01/08 03:56:31;;;;;;;39.58;23.98;;;;;;;0.16;67.92;94103.52;1822081;78;21059;-50
2021/01/08 03:59:00;;;;;;;41.35;24.00;;;;;;;0.10;68.04;94103.19;1822135;78;21064;-49
2021/01/08 04:01:28;;;;;;;46.92;25.70;;;;;;;0.04;68.38;94112.86;1822232;78;22122;-50
2021/01/08 04:03:57;;;;;;;46.05;26.52;;;;;;;0.03;68.47;94108.63;1806343;79;21107;-50
2021/01/08 04:06:25;;;;;;;47.80;27.00;;;;;;;0.04;68.66;94107.45;1822073;78;21099;-50
2021/01/08 04:08:55;;;;;;;55.55;30.00;;;;;;;0.11;68.74;94108.00;1822132;78;21044;-50
2021/01/08 04:11:23;;;;;;;59.42;32.95;;;;;;;0.16;68.52;94101.59;1806348;79;21096;-50
2021/01/08 04:13:52;;;;;;;59.83;32.63;;;;;;;0.19;68.35;94100.80;1822080;78;22893;-50
2021/01/08 04:16:20;;;;;;;60.50;31.87;;;;;;;0.18;68.19;94103.31;1821960;78;21048;-50
2021/01/08 04:18:49;;;;;;;59.10;31.87;;;;;;;0.16;68.23;94100.24;1822029;78;21147;-49
2021/01/08 04:21:18;;;;;;;49.73;28.60;;;;;;;0.15;68.37;94098.70;1822109;78;21110;-50
2021/01/08 04:23:46;;;;;;;50.75;28.05;;;;;;;0.15;68.14;94097.36;1822087;78;21122;-50
2021/01/08 04:26:14;;;;;;;65.80;36.98;;;;;;;0.03;68.27;94104.56;1806460;79;22105;-49
2021/01/08 04:28:43;;;;;;;68.57;36.45;;;;;;;-0.09;68.66;94101.56;1822049;78;21065;-50
2021/01/08 04:31:11;;;;;;;71.82;40.83;;;;;;;-0.07;68.86;94099.83;1806367;79;21107;-50
2021/01/08 04:33:43;;;;;;;71.70;38.63;;;;;;;-0.02;68.75;94099.41;1822096;78;21084;-52
2021/01/08 04:36:11;;;;;;;81.97;40.35;;;;;;;-0.02;68.55;94102.29;1822337;78;21491;-51
2021/01/08 04:38:40;;;;;;;74.00;39.58;;;;;;;-0.07;68.44;94097.12;1822221;78;22317;-50
2021/01/08 04:41:09;;;;;;;75.03;38.42;;;;;;;-0.19;68.82;94098.33;1822038;78;21131;-51
2021/01/08 04:43:37;;;;;;;63.20;35.92;;;;;;;-0.26;69.21;94094.32;1806330;79;21087;-50
2021/01/08 04:46:26;;;;;;;69.35;36.93;;;;;;;-0.26;69.38;94098.97;1822056;78;21170;-51
2021/01/08 04:48:59;;;;;;;67.65;39.15;;;;;;;-0.18;69.65;94103.16;1806475;79;21476;-50
2021/01/08 04:51:27;;;;;;;;;;;;;;;-0.06;69.35;94100.02;1824469;78;21222;-50
2021/01/08 04:53:55;;;;;;;84.65;44.90;;;;;;;-0.05;69.19;94087.44;1822056;78;20299;-50
2021/01/08 04:56:29;;;;;;;69.22;37.95;;;;;;;-0.07;69.18;94084.96;1822036;78;21044;-51
2021/01/08 04:58:57;;;;;;;75.85;40.83;;;;;;;-0.10;69.21;94090.56;1822185;78;21120;-50
2021/01/08 05:01:25;;;;;;;78.00;42.98;;;;;;;-0.08;69.37;94080.72;1806428;79;21634;-50
2021/01/08 05:03:54;;;;;;;76.25;40.67;;;;;;;-0.08;69.20;94089.58;1822065;78;21369;-49
2021/01/08 05:06:22;;;;;;;83.87;44.03;;;;;;;-0.14;69.26;94098.50;1806277;79;21064;-50
2021/01/08 05:08:51;;;;;;;105.92;52.75;;;;;;;-0.20;69.65;94104.14;1822171;78;21457;-50
2021/01/08 05:11:21;;;;;;;112.72;59.60;;;;;;;-0.35;69.68;94103.45;1806390;79;21044;-50
2021/01/08 05:13:55;;;;;;;97.50;49.98;;;;;;;-0.48;69.74;94102.34;1822115;78;21481;-50
2021/01/08 05:16:27;;;;;;;106.50;56.08;;;;;;;-0.52;69.92;94119.16;1822024;78;21206;-51
2021/01/08 05:18:56;;;;;;;92.53;51.08;;;;;;;-0.58;70.08;94115.30;1822214;78;21127;-51
2021/01/08 05:21:26;;;;;;;84.40;45.73;;;;;;;-0.54;70.27;94109.89;1806339;79;21151;-51
2021/01/08 05:23:56;;;;;;;87.45;48.65;;;;;;;-0.51;70.24;94106.41;1792965;78;21056;-50
2021/01/08 05:26:24;;;;;;;79.35;45.23;;;;;;;-0.53;70.27;94101.41;1822158;78;21056;-50
2021/01/08 05:29:00;;;;;;;70.17;40.90;;;;;;;-0.51;70.46;94105.05;1822098;78;21207;-49
2021/01/08 05:31:32;;;;;;;74.00;41.08;;;;;;;-0.45;70.28;94088.65;1821731;78;21878;-49
2021/01/08 05:34:01;;;;;;;88.30;48.37;;;;;;;-0.45;70.26;94092.70;1822332;78;21059;-49
2021/01/08 05:36:29;;;;;;;94.05;54.35;;;;;;;-0.43;70.25;94101.17;1822077;78;21131;-50
2021/01/08 05:39:00;;;;;;;109.57;57.98;;;;;;;-0.43;70.52;94093.07;1822066;78;21127;-50
2021/01/08 05:41:30;;;;;;;76.20;43.70;;;;;;;-0.39;70.34;94104.63;1822068;78;21407;-50
2021/01/08 05:44:00;;;;;;;100.38;56.45;;;;;;;-0.39;70.29;94104.63;1806321;79;21139;-49
2021/01/08 05:46:34;;;;;;;102.78;56.73;;;;;;;-0.46;70.28;94106.77;1822048;78;21123;-49
2021/01/08 05:49:05;;;;;;;192.85;93.92;;;;;;;-0.46;70.28;94105.42;1806299;79;21068;-51
2021/01/08 05:51:35;;;;;;;172.37;89.07;;;;;;;-0.48;70.22;94106.40;1821993;78;21080;-50
2021/01/08 05:54:05;;;;;;;186.43;92.47;;;;;;;-0.51;70.17;94096.95;1822338;78;21360;-50
2021/01/08 05:56:37;;;;;;;133.63;72.62;;;;;;;-0.59;70.37;94102.20;1822008;78;21080;-51
2021/01/08 05:59:07;;;;;;;126.75;67.00;;;;;;;-0.66;70.45;94107.62;1822271;78;21119;-52
2021/01/08 06:01:38;;;;;;;122.30;68.75;;;;;;;-0.70;70.60;94104.16;1822036;78;21582;-51
2021/01/08 06:04:07;;;;;;;119.28;69.70;;;;;;;-0.70;70.88;94107.65;1822216;78;21044;-50
2021/01/08 06:06:41;;;;;;;122.15;65.92;;;;;;;-0.68;70.84;94101.84;1767175;78;21440;-51
2021/01/08 06:09:13;;;;;;;120.92;68.47;;;;;;;-0.71;70.86;94105.33;1822238;78;21067;-50
2021/01/08 06:11:45;;;;;;;98.33;55.17;;;;;;;-0.69;71.14;94103.78;1806679;79;21501;-53
2021/01/08 06:14:16;;;;;;;94.95;53.73;;;;;;;-0.67;71.08;94102.03;1822333;78;21059;-48
2021/01/08 06:16:49;;;;;;;109.65;60.38;;;;;;;-0.74;71.23;94107.46;1792882;78;21154;-49
2021/01/08 06:19:18;;;;;;;101.92;55.12;;;;;;;-0.86;71.60;94102.48;1822087;78;21378;-50
2021/01/08 06:21:48;;;;;;;103.55;56.05;;;;;;;-0.90;71.73;94107.13;1806398;79;21152;-50
2021/01/08 06:24:29;;;;;;;104.90;59.70;;;;;;;-0.95;72.07;94121.02;1822206;78;21091;-51
2021/01/08 06:26:58;;;;;;;113.83;65.12;;;;;;;-0.95;72.13;94128.53;1822375;78;21210;-52
2021/01/08 06:29:27;;;;;;;103.58;60.30;;;;;;;-0.95;72.18;94141.27;1806464;79;21115;-50
2021/01/08 06:31:57;;;;;;;101.50;58.83;;;;;;;-0.94;72.26;94150.91;1792887;78;22032;-51
2021/01/08 06:34:30;;;;;;;104.55;60.30;;;;;;;-0.92;72.46;94145.30;1806535;79;21108;-50
2021/01/08 06:37:07;;;;;;;98.30;60.23;;;;;;;-0.87;72.25;94148.18;1822353;78;21107;-50
2021/01/08 06:39:41;;;;;;;115.95;64.77;;;;;;;-0.82;72.21;94157.22;1822205;78;21164;-51
2021/01/08 06:42:09;;;;;;;120.10;67.08;;;;;;;-0.76;72.13;94163.78;1839095;78;21104;-52
2021/01/08 06:44:39;;;;;;;124.67;69.03;;;;;;;-0.69;71.82;94165.89;1806430;79;21278;-50
2021/01/08 06:47:07;;;;;;;116.28;66.57;;;;;;;-0.62;71.58;94155.66;1806376;79;21140;-51
2021/01/08 06:49:37;;;;;;;134.67;74.92;;;;;;;-0.58;71.58;94157.76;1806379;79;21139;-51
2021/01/08 06:52:05;;;;;;;140.37;78.35;;;;;;;-0.47;71.42;94163.88;1806450;79;21489;-50
2021/01/08 06:54:34;;;;;;;204.40;106.83;;;;;;;-0.48;71.27;94169.09;1806554;78;21461;-52
2021/01/08 06:57:03;;;;;;;220.73;120.92;;;;;;;-0.52;71.30;94171.04;1806439;79;21451;-52
2021/01/08 06:59:33;;;;;;;197.25;111.42;;;;;;;-0.53;71.36;94174.34;1806390;79;21076;-51
2021/01/08 07:02:16;;;;;;;205.67;117.45;;;;;;;-0.47;71.51;94165.23;1806435;79;21485;-52
2021/01/08 07:04:45;;;;;;;195.35;116.97;;;;;;;-0.42;71.36;94168.90;1806442;79;21143;-50
2021/01/08 07:07:24;;;;;;;226.47;124.12;;;;;;;-0.40;71.28;94178.73;1806444;79;21101;-52
2021/01/08 07:09:57;;;;;;;235.02;129.12;;;;;;;-0.40;71.21;94168.67;1777884;79;21386;-52
2021/01/08 07:12:26;;;;;;;249.20;137.75;;;;;;;-0.37;71.21;94176.59;1806401;78;21183;-51
2021/01/08 07:14:54;;;;;;;230.77;130.35;;;;;;;-0.31;71.19;94180.41;1806397;78;21076;-52
2021/01/08 07:17:33;;;;;;;240.07;128.95;;;;;;;-0.20;71.08;94173.80;1806249;79;21068;-52
2021/01/08 07:20:05;;;;;;;224.47;122.72;;;;;;;-0.11;70.94;94171.46;1806501;79;21484;-51
2021/01/08 07:22:39;;;;;;;231.15;123.13;;;;;;;-0.01;70.80;94167.35;1806473;79;21147;-50
2021/01/08 07:25:13;;;;;;;218.80;119.80;;;;;;;0.13;70.53;94163.23;1806355;79;21138;-51
2021/01/08 07:27:42;;;;;;;191.70;108.27;;;;;;;0.28;70.02;94163.91;1806376;79;21071;-52
2021/01/08 07:30:13;;;;;;;197.35;112.52;;;;;;;0.32;69.59;94166.78;1806389;79;21098;-55
2021/01/08 07:32:50;;;;;;;192.28;104.32;;;;;;;0.30;69.47;94170.47;1806451;79;21505;-55
2021/01/08 07:35:27;;;;;;;212.60;120.62;;;;;;;0.26;69.46;94175.70;1806367;79;21199;-52
2021/01/08 07:38:01;;;;;;;212.35;117.10;;;;;;;0.25;69.74;94172.81;1807582;78;21154;-53
2021/01/08 07:40:38;;;;;;;201.80;117.22;;;;;;;0.28;69.69;94174.16;1818884;77;21134;-52
2021/01/08 07:43:10;;;;;;;255.55;141.18;;;;;;;0.34;69.58;94170.42;1792233;79;21558;-51
2021/01/08 07:45:56;;;;;;;232.12;129.63;;;;;;;0.38;69.45;94171.20;1807669;79;21119;-51
2021/01/08 07:51:15;;;;;;;219.10;119.50;;;;;;;0.40;69.46;94174.27;1873560;75;21969;-51
2021/01/08 07:53:46;;;;;;;209.30;118.33;;;;;;;0.34;69.38;94177.19;1841523;78;21002;-52
2021/01/08 07:56:26;;;;;;;170.60;97.27;;;;;;;0.31;69.47;94180.69;1841489;77;21344;-52
2021/01/08 07:59:04;;;;;;;172.22;96.97;;;;;;;0.33;69.10;94185.12;1841421;77;21109;-53
2021/01/08 08:01:33;;;;;;;134.10;75.22;;;;;;;0.40;69.04;94180.44;1841635;78;21525;-51
2021/01/08 08:04:11;;;;;;;125.53;71.87;;;;;;;0.56;68.73;94181.32;1841487;78;21002;-53
2021/01/08 08:06:42;;;;;;;131.60;73.85;;;;;;;0.63;68.27;94175.24;1840934;77;21501;-52
2021/01/08 08:09:13;;;;;;;121.65;68.12;;;;;;;0.65;68.05;94179.70;1841340;77;21192;-52
2021/01/08 08:11:41;;;;;;;201.92;110.48;;;;;;;0.70;67.72;94179.27;1841453;78;21219;-54
2021/01/08 08:14:16;;;;;;;272.70;141.90;;;;;;;0.80;67.70;94183.81;1841578;77;21463;-53
2021/01/08 08:16:44;;;;;;;241.65;133.90;;;;;;;0.86;67.68;94174.69;1823435;78;21187;-51
2021/01/08 08:19:13;;;;;;;209.85;119.80;;;;;;;0.90;67.89;94172.14;1808380;79;21210;-51
2021/01/08 08:21:51;;;;;;;179.70;101.72;;;;;;;0.86;67.72;94171.41;1808493;79;22113;-55
2021/01/08 08:24:19;;;;;;;201.15;110.52;;;;;;;0.76;67.75;94153.30;1808445;79;21073;-52
2021/01/08 08:26:49;;;;;;;202.95;113.37;;;;;;;0.75;67.88;94153.13;1808444;79;21478;-57
2021/01/08 08:29:19;;;;;;;187.75;109.63;;;;;;;0.81;67.92;94156.93;1808433;79;21086;-50
2021/01/08 08:31:50;;;;;;;183.03;99.10;;;;;;;0.95;67.70;94162.23;1808461;78;21505;-53
2021/01/08 08:34:31;;;;;;;215.18;118.00;;;;;;;1.06;67.51;94150.73;1808743;79;22356;-51
2021/01/08 08:37:09;;;;;;;199.85;109.22;;;;;;;1.03;67.28;94148.83;1808564;78;21516;-51
2021/01/08 08:39:37;;;;;;;206.05;115.60;;;;;;;0.96;67.26;94154.89;1808434;78;21111;-52
2021/01/08 08:42:07;;;;;;;179.07;107.30;;;;;;;0.93;67.40;94157.80;1808502;78;21497;-52
2021/01/08 08:44:41;;;;;;;138.60;79.03;;;;;;;1.03;67.42;94161.59;1808564;79;21510;-55
2021/01/08 08:47:11;;;;;;;137.88;80.57;;;;;;;1.23;66.96;94155.22;1808498;79;21378;-57
2021/01/08 08:49:40;;;;;;;176.30;99.67;;;;;;;1.30;66.48;94155.13;1780043;79;21109;-52
2021/01/08 08:52:09;;;;;;;184.72;106.45;;;;;;;1.37;66.40;94145.59;1808532;78;21505;-54
2021/01/08 08:54:39;;;;;;;160.85;92.67;;;;;;;1.40;66.34;94139.36;1808367;79;21513;-53
2021/01/08 08:57:09;;;;;;;170.68;95.67;;;;;;;1.47;66.21;94129.80;1808424;79;21058;-53
2021/01/08 08:59:43;;;;;;;141.57;79.47;;;;;;;1.57;65.78;94134.34;1808406;79;21359;-52
2021/01/08 09:02:27;;;;;;;119.45;66.82;;;;;;;1.66;65.38;94135.95;1807887;79;21625;-53
2021/01/08 09:05:00;;;;;;;122.22;71.77;;;;;;;1.65;65.13;94141.80;1807815;79;21081;-51
2021/01/08 09:07:41;;;;;;;125.40;70.25;;;;;;;1.59;65.09;94136.05;1807744;79;21097;-52
2021/01/08 09:10:18;;;;;;;112.70;66.62;;;;;;;1.62;65.00;94143.37;1791837;79;21057;-53
2021/01/08 09:13:16;;;;;;;111.68;66.47;;;;;;;1.66;64.89;94138.67;1807828;78;21358;-53
2021/01/08 09:16:13;;;;;;;109.20;62.83;;;;;;;1.75;64.67;94134.90;1807880;78;21073;-53
2021/01/08 09:18:51;;;;;;;93.40;55.55;;;;;;;1.86;64.66;94136.30;1807837;78;21195;-55
2021/01/08 09:21:24;;;;;;;73.17;42.93;;;;;;;2.03;64.36;94127.75;1807839;78;21061;-52
2021/01/08 09:23:54;;;;;;;77.65;48.23;;;;;;;2.19;64.00;94127.92;1807590;78;21156;-53
2021/01/08 09:26:22;;;;;;;66.75;39.95;;;;;;;2.26;63.60;94132.66;1807918;79;21537;-54
2021/01/08 09:28:57;;;;;;;54.05;32.80;;;;;;;2.40;63.28;94130.33;1807782;79;21910;-53
2021/01/08 09:31:43;;;;;;;52.48;32.98;;;;;;;2.56;62.69;94135.91;1806737;79;21144;-52
2021/01/08 09:34:12;;;;;;;61.55;39.00;;;;;;;2.69;62.11;94138.23;1807778;78;21125;-52
2021/01/08 09:36:43;;;;;;;52.83;29.63;;;;;;;2.80;61.12;94132.81;1779010;79;21078;-54
2021/01/08 09:39:11;;;;;;;54.05;31.77;;;;;;;2.84;60.66;94135.48;1807865;79;21442;-55
2021/01/08 09:41:41;;;;;;;60.33;37.40;;;;;;;2.94;60.25;94126.38;1807768;78;21090;-51
2021/01/08 09:44:12;;;;;;;60.25;34.35;;;;;;;3.05;59.73;94124.26;1807950;79;21483;-57
2021/01/08 09:47:12;;;;;;;72.50;42.88;;;;;;;3.16;59.27;94135.69;1807862;79;21490;-52
2021/01/08 09:49:52;;;;;;;64.85;37.30;;;;;;;3.07;59.17;94134.12;1807642;79;21302;-54
2021/01/08 09:52:28;;;;;;;69.47;42.40;;;;;;;2.94;59.31;94131.80;1780543;79;21344;-52
2021/01/08 09:54:59;;;;;;;78.75;45.35;;;;;;;2.86;59.45;94130.40;1806367;78;21073;-53
2021/01/08 09:57:35;;;;;;;82.37;49.95;;;;;;;2.87;59.35;94134.05;1807960;79;21100;-52
2021/01/08 10:00:09;;;;;;;102.25;60.73;;;;;;;2.90;59.34;94127.03;1779944;79;21037;-52
2021/01/08 10:02:48;;;;;;;110.95;62.35;;;;;;;2.93;59.35;94122.13;1758115;80;21202;-51
2021/01/08 10:05:23;;;;;;;95.00;51.73;;;;;;;2.94;59.37;94120.94;1750180;80;21204;-52
2021/01/08 10:07:51;;;;;;;85.28;45.92;;;;;;;2.98;59.55;94127.08;1749900;81;21223;-53
2021/01/08 10:10:31;;;;;;;82.75;49.27;;;;;;;2.99;59.28;94117.17;1748838;80;21055;-52
2021/01/08 10:13:00;;;;;;;80.50;47.98;;;;;;;2.95;59.09;94111.61;1748839;80;21506;-54
2021/01/08 10:15:37;;;;;;;81.45;48.85;;;;;;;2.96;59.18;94113.14;1748880;82;21059;-55
2021/01/08 10:18:14;;;;;;;93.40;40.67;;;;;;;3.12;58.97;94115.97;1748901;81;21366;-56
2021/01/08 10:20:50;;;;;;;65.08;41.35;;;;;;;3.30;58.71;94101.48;1720064;82;21110;-55
2021/01/08 10:23:20;;;;;;;73.25;44.95;;;;;;;3.32;58.26;94090.95;1748921;82;21075;-53
2021/01/08 10:25:49;;;;;;;90.28;53.23;;;;;;;3.41;58.28;94085.75;1748935;81;21059;-56
2021/01/08 10:28:22;;;;;;;62.50;39.63;;;;;;;3.59;58.42;94089.64;1748865;80;21092;-55
2021/01/08 10:30:54;;;;;;;67.25;39.30;;;;;;;3.78;58.15;94078.77;1748905;82;21386;-54
2021/01/08 10:33:25;;;;;;;68.78;41.85;;;;;;;3.84;57.60;94085.24;1748990;80;21651;-54
2021/01/08 10:35:55;;;;;;;67.10;40.08;;;;;;;3.86;57.62;94069.27;1748961;82;21111;-53
2021/01/08 10:38:24;;;;;;;56.50;35.17;;;;;;;3.95;57.54;94061.31;1748947;82;21173;-54
2021/01/08 10:40:53;;;;;;;66.72;39.18;;;;;;;4.06;57.01;94053.67;1748709;80;21098;-50
2021/01/08 10:43:22;;;;;;;57.93;35.40;;;;;;;4.04;56.59;94043.80;1748751;80;21362;-52
2021/01/08 10:45:50;;;;;;;52.03;34.45;;;;;;;4.06;56.59;94037.34;1748856;80;21098;-52
2021/01/08 10:48:19;;;;;;;50.98;31.70;;;;;;;4.08;56.55;94028.77;1748966;80;21479;-53
2021/01/08 10:50:48;;;;;;;71.00;38.58;;;;;;;4.09;56.44;94020.16;1756095;81;21479;-51
2021/01/08 10:53:17;;;;;;;81.57;37.73;;;;;;;4.10;55.64;94017.64;1765862;81;21063;-52
2021/01/08 10:55:47;;;;;;;43.78;28.20;;;;;;;4.00;55.38;94014.55;1765825;81;22099;-52
2021/01/08 10:58:16;;;;;;;42.38;27.90;;;;;;;3.94;54.84;94012.17;1765673;80;21143;-50
2021/01/08 11:00:47;;;;;;;70.83;32.80;;;;;;;3.84;54.95;94029.48;1765823;81;21155;-53
2021/01/08 11:03:15;;;;;;;52.38;30.45;;;;;;;3.74;55.22;94033.20;1765737;80;21587;-55
2021/01/08 11:05:44;;;;;;;63.17;38.63;;;;;;;3.66;55.40;94023.65;1765798;79;21127;-54
2021/01/08 11:08:12;;;;;;;53.23;33.85;;;;;;;3.61;55.79;94016.58;1765904;81;22030;-55
2021/01/08 11:10:41;;;;;;;65.83;29.80;;;;;;;3.57;55.63;94012.59;1765853;80;21091;-55
2021/01/08 11:13:09;;;;;;;38.45;24.52;;;;;;;3.60;55.39;94013.10;1765818;80;21076;-53
2021/01/08 11:15:38;;;;;;;40.33;21.80;;;;;;;3.67;54.92;94015.66;1765751;81;21111;-54
2021/01/08 11:18:08;;;;;;;38.15;22.35;;;;;;;3.71;54.53;94019.06;1765945;80;21508;-54
2021/01/08 11:20:36;;;;;;;34.03;19.02;;;;;;;3.75;54.53;94021.14;1765924;80;22162;-55
2021/01/08 11:23:05;;;;;;;29.35;18.55;;;;;;;3.85;54.19;94026.18;1765779;80;21175;-53
2021/01/08 11:25:34;;;;;;;38.85;27.20;;;;;;;3.90;53.80;94027.03;1765918;81;21592;-55
2021/01/08 11:28:04;;;;;;;53.00;27.45;;;;;;;3.87;54.06;94019.11;1765835;81;21154;-55
2021/01/08 11:30:32;;;;;;;38.78;25.65;;;;;;;3.93;54.10;94020.75;1765823;81;21115;-56
2021/01/08 11:33:02;;;;;;;44.90;27.82;;;;;;;4.02;54.14;94015.50;1765903;80;22258;-54
2021/01/08 11:35:31;;;;;;;31.65;20.92;;;;;;;4.09;53.96;94009.89;1765777;81;21084;-55
2021/01/08 11:38:00;;;;;;;33.45;21.15;;;;;;;4.19;53.18;94004.78;1765847;81;21047;-55